sensor_id;sensor_type;location;lat;lon;timestamp;pressure;altitude;pressure_sealevel;temperature;humidity
50464;BME280;62167;38.552;-121.478;2022-07-18T00:00:35;100546.63;;;38.51;13.27
50464;BME280;62167;38.552;-121.478;2022-07-18T00:03:02;100550.50;;;38.46;12.48
50464;BME280;62167;38.552;-121.478;2022-07-18T00:05:28;100551.59;;;38.41;13.37
50464;BME280;62167;38.552;-121.478;2022-07-18T00:07:54;100555.94;;;38.39;13.19
50464;BME280;62167;38.552;-121.478;2022-07-18T00:10:20;100556.41;;;38.41;13.73
50464;BME280;62167;38.552;-121.478;2022-07-18T00:12:47;100553.75;;;38.32;12.90
50464;BME280;62167;38.552;-121.478;2022-07-18T00:15:13;100557.94;;;38.26;12.84
50464;BME280;62167;38.552;-121.478;2022-07-18T00:17:40;100550.13;;;38.20;12.61
50464;BME280;62167;38.552;-121.478;2022-07-18T00:20:08;100549.91;;;38.12;13.13
50464;BME280;62167;38.552;-121.478;2022-07-18T00:22:35;100559.88;;;38.10;13.52
50464;BME280;62167;38.552;-121.478;2022-07-18T00:25:02;100547.69;;;38.06;13.26
50464;BME280;62167;38.552;-121.478;2022-07-18T00:27:28;100536.44;;;38.06;13.37
50464;BME280;62167;38.552;-121.478;2022-07-18T00:29:54;100548.88;;;38.05;14.48
50464;BME280;62167;38.552;-121.478;2022-07-18T00:32:20;100530.59;;;37.99;13.05
50464;BME280;62167;38.552;-121.478;2022-07-18T00:34:47;100530.59;;;37.99;12.94
50464;BME280;62167;38.552;-121.478;2022-07-18T00:37:13;100530.25;;;38.00;12.75
50464;BME280;62167;38.552;-121.478;2022-07-18T00:39:42;100526.50;;;37.96;13.25
50464;BME280;62167;38.552;-121.478;2022-07-18T00:42:08;100528.75;;;37.90;12.28
50464;BME280;62167;38.552;-121.478;2022-07-18T00:44:34;100536.00;;;37.79;11.59
50464;BME280;62167;38.552;-121.478;2022-07-18T00:47:01;100531.31;;;37.71;12.49
50464;BME280;62167;38.552;-121.478;2022-07-18T00:49:28;100527.28;;;37.56;13.24
50464;BME280;62167;38.552;-121.478;2022-07-18T00:51:55;100523.38;;;37.61;13.95
50464;BME280;62167;38.552;-121.478;2022-07-18T00:54:21;100524.09;;;37.58;13.92
50464;BME280;62167;38.552;-121.478;2022-07-18T00:56:49;100515.66;;;37.46;12.47
50464;BME280;62167;38.552;-121.478;2022-07-18T00:59:16;100523.63;;;37.44;13.46
50464;BME280;62167;38.552;-121.478;2022-07-18T01:01:42;100523.28;;;37.45;13.99
50464;BME280;62167;38.552;-121.478;2022-07-18T01:04:11;100524.44;;;37.44;14.86
50464;BME280;62167;38.552;-121.478;2022-07-18T01:06:38;100518.00;;;37.31;14.36
50464;BME280;62167;38.552;-121.478;2022-07-18T01:09:05;100517.88;;;37.28;13.97
50464;BME280;62167;38.552;-121.478;2022-07-18T01:11:33;100521.28;;;37.21;13.34
50464;BME280;62167;38.552;-121.478;2022-07-18T01:14:01;100516.69;;;37.17;13.42
50464;BME280;62167;38.552;-121.478;2022-07-18T01:16:28;100521.25;;;37.09;14.14
50464;BME280;62167;38.552;-121.478;2022-07-18T01:18:54;100525.31;;;36.99;14.43
50464;BME280;62167;38.552;-121.478;2022-07-18T01:21:21;100523.09;;;36.93;14.84
50464;BME280;62167;38.552;-121.478;2022-07-18T01:23:47;100522.94;;;36.89;15.50
50464;BME280;62167;38.552;-121.478;2022-07-18T01:26:15;100523.38;;;36.79;15.96
50464;BME280;62167;38.552;-121.478;2022-07-18T01:28:42;100523.06;;;36.80;16.31
50464;BME280;62167;38.552;-121.478;2022-07-18T01:31:08;100520.34;;;36.72;17.87
50464;BME280;62167;38.552;-121.478;2022-07-18T01:33:35;100525.28;;;36.54;18.71
50464;BME280;62167;38.552;-121.478;2022-07-18T01:36:04;100518.25;;;36.48;19.51
50464;BME280;62167;38.552;-121.478;2022-07-18T01:38:31;100535.31;;;36.43;20.27
50464;BME280;62167;38.552;-121.478;2022-07-18T01:40:58;100534.75;;;36.28;20.32
50464;BME280;62167;38.552;-121.478;2022-07-18T01:43:26;100538.69;;;36.15;20.44
50464;BME280;62167;38.552;-121.478;2022-07-18T01:45:53;100544.00;;;36.08;20.51
50464;BME280;62167;38.552;-121.478;2022-07-18T01:48:20;100541.97;;;35.87;20.68
50464;BME280;62167;38.552;-121.478;2022-07-18T01:50:49;100540.06;;;35.79;21.38
50464;BME280;62167;38.552;-121.478;2022-07-18T01:53:16;100540.88;;;35.59;21.27
50464;BME280;62167;38.552;-121.478;2022-07-18T01:55:42;100545.88;;;35.45;21.31
50464;BME280;62167;38.552;-121.478;2022-07-18T01:58:08;100546.88;;;35.31;21.64
50464;BME280;62167;38.552;-121.478;2022-07-18T02:00:34;100547.41;;;35.25;21.86
50464;BME280;62167;38.552;-121.478;2022-07-18T02:03:01;100549.09;;;35.17;22.18
50464;BME280;62167;38.552;-121.478;2022-07-18T02:05:27;100548.50;;;35.03;22.39
50464;BME280;62167;38.552;-121.478;2022-07-18T02:07:53;100549.31;;;35.03;22.48
50464;BME280;62167;38.552;-121.478;2022-07-18T02:10:21;100549.34;;;34.95;23.43
50464;BME280;62167;38.552;-121.478;2022-07-18T02:12:47;100546.06;;;34.75;22.94
50464;BME280;62167;38.552;-121.478;2022-07-18T02:15:15;100541.47;;;34.62;22.93
50464;BME280;62167;38.552;-121.478;2022-07-18T02:17:42;100546.94;;;34.58;23.32
50464;BME280;62167;38.552;-121.478;2022-07-18T02:20:10;100553.34;;;34.50;23.74
50464;BME280;62167;38.552;-121.478;2022-07-18T02:22:37;100552.66;;;34.36;22.94
50464;BME280;62167;38.552;-121.478;2022-07-18T02:25:05;100556.59;;;34.26;22.93
50464;BME280;62167;38.552;-121.478;2022-07-18T02:27:31;100558.25;;;34.19;24.06
50464;BME280;62167;38.552;-121.478;2022-07-18T02:29:58;100559.88;;;34.11;23.33
50464;BME280;62167;38.552;-121.478;2022-07-18T02:32:24;100565.13;;;33.95;23.51
50464;BME280;62167;38.552;-121.478;2022-07-18T02:34:50;100567.69;;;33.74;22.92
50464;BME280;62167;38.552;-121.478;2022-07-18T02:37:17;100560.59;;;33.51;22.89
50464;BME280;62167;38.552;-121.478;2022-07-18T02:39:43;100563.66;;;33.41;23.65
50464;BME280;62167;38.552;-121.478;2022-07-18T02:42:10;100561.44;;;33.29;23.73
50464;BME280;62167;38.552;-121.478;2022-07-18T02:44:36;100556.97;;;33.19;23.71
50464;BME280;62167;38.552;-121.478;2022-07-18T02:47:03;100561.81;;;33.05;24.37
50464;BME280;62167;38.552;-121.478;2022-07-18T02:49:29;100562.03;;;32.86;23.98
50464;BME280;62167;38.552;-121.478;2022-07-18T02:52:00;100564.38;;;32.70;24.32
50464;BME280;62167;38.552;-121.478;2022-07-18T02:54:28;100564.19;;;32.67;24.27
50464;BME280;62167;38.552;-121.478;2022-07-18T02:56:55;100576.44;;;32.57;24.17
50464;BME280;62167;38.552;-121.478;2022-07-18T02:59:21;100575.03;;;32.46;24.47
50464;BME280;62167;38.552;-121.478;2022-07-18T03:01:47;100575.28;;;32.36;24.99
50464;BME280;62167;38.552;-121.478;2022-07-18T03:04:21;100581.19;;;32.20;24.49
50464;BME280;62167;38.552;-121.478;2022-07-18T03:06:48;100578.31;;;32.12;24.56
50464;BME280;62167;38.552;-121.478;2022-07-18T03:09:15;100575.84;;;32.10;24.30
50464;BME280;62167;38.552;-121.478;2022-07-18T03:11:42;100572.88;;;31.93;24.65
50464;BME280;62167;38.552;-121.478;2022-07-18T03:14:08;100572.34;;;31.77;25.46
50464;BME280;62167;38.552;-121.478;2022-07-18T03:16:35;100577.41;;;31.47;24.53
50464;BME280;62167;38.552;-121.478;2022-07-18T03:19:01;100579.50;;;31.28;25.07
50464;BME280;62167;38.552;-121.478;2022-07-18T03:21:28;100579.53;;;31.09;25.12
50464;BME280;62167;38.552;-121.478;2022-07-18T03:23:55;100570.91;;;30.92;24.82
50464;BME280;62167;38.552;-121.478;2022-07-18T03:26:22;100580.59;;;30.81;25.26
50464;BME280;62167;38.552;-121.478;2022-07-18T03:28:48;100573.59;;;30.64;24.90
50464;BME280;62167;38.552;-121.478;2022-07-18T03:31:14;100585.13;;;30.58;24.99
50464;BME280;62167;38.552;-121.478;2022-07-18T03:33:41;100594.69;;;30.52;26.38
50464;BME280;62167;38.552;-121.478;2022-07-18T03:36:07;100585.72;;;30.36;26.68
50464;BME280;62167;38.552;-121.478;2022-07-18T03:38:33;100597.53;;;30.28;26.43
50464;BME280;62167;38.552;-121.478;2022-07-18T03:41:02;100596.34;;;30.10;25.92
50464;BME280;62167;38.552;-121.478;2022-07-18T03:43:29;100601.16;;;30.04;26.83
50464;BME280;62167;38.552;-121.478;2022-07-18T03:45:56;100598.22;;;29.95;26.32
50464;BME280;62167;38.552;-121.478;2022-07-18T03:48:23;100594.22;;;29.83;26.43
50464;BME280;62167;38.552;-121.478;2022-07-18T03:50:49;100597.50;;;29.66;26.75
50464;BME280;62167;38.552;-121.478;2022-07-18T03:53:15;100591.25;;;29.50;27.88
50464;BME280;62167;38.552;-121.478;2022-07-18T03:55:41;100589.44;;;29.40;27.34
50464;BME280;62167;38.552;-121.478;2022-07-18T03:58:08;100595.56;;;29.37;27.98
50464;BME280;62167;38.552;-121.478;2022-07-18T04:00:34;100598.81;;;29.20;27.91
50464;BME280;62167;38.552;-121.478;2022-07-18T04:03:00;100606.94;;;29.12;28.02
50464;BME280;62167;38.552;-121.478;2022-07-18T04:05:27;100603.13;;;29.03;27.55
50464;BME280;62167;38.552;-121.478;2022-07-18T04:07:53;100604.06;;;28.88;27.65
50464;BME280;62167;38.552;-121.478;2022-07-18T04:10:19;100608.38;;;28.70;28.07
50464;BME280;62167;38.552;-121.478;2022-07-18T04:12:51;100613.94;;;28.70;27.84
50464;BME280;62167;38.552;-121.478;2022-07-18T04:15:19;100613.66;;;28.66;28.23
50464;BME280;62167;38.552;-121.478;2022-07-18T04:17:46;100607.38;;;28.56;28.27
50464;BME280;62167;38.552;-121.478;2022-07-18T04:20:15;100611.53;;;28.53;29.03
50464;BME280;62167;38.552;-121.478;2022-07-18T04:22:54;100611.13;;;28.36;28.58
50464;BME280;62167;38.552;-121.478;2022-07-18T04:25:22;100613.34;;;28.29;28.69
50464;BME280;62167;38.552;-121.478;2022-07-18T04:27:50;100613.38;;;28.24;28.70
50464;BME280;62167;38.552;-121.478;2022-07-18T04:30:18;100613.47;;;28.08;28.65
50464;BME280;62167;38.552;-121.478;2022-07-18T04:32:46;100614.03;;;28.05;29.07
50464;BME280;62167;38.552;-121.478;2022-07-18T04:35:12;100616.28;;;28.03;29.44
50464;BME280;62167;38.552;-121.478;2022-07-18T04:37:39;100626.81;;;27.96;30.05
50464;BME280;62167;38.552;-121.478;2022-07-18T04:40:07;100639.06;;;27.80;30.08
50464;BME280;62167;38.552;-121.478;2022-07-18T04:42:35;100650.72;;;27.72;29.84
50464;BME280;62167;38.552;-121.478;2022-07-18T04:45:01;100653.75;;;27.65;30.41
50464;BME280;62167;38.552;-121.478;2022-07-18T04:47:28;100658.75;;;27.58;30.90
50464;BME280;62167;38.552;-121.478;2022-07-18T04:49:55;100660.69;;;27.47;31.00
50464;BME280;62167;38.552;-121.478;2022-07-18T04:52:21;100657.94;;;27.42;31.56
50464;BME280;62167;38.552;-121.478;2022-07-18T04:54:48;100663.22;;;27.33;31.45
50464;BME280;62167;38.552;-121.478;2022-07-18T04:57:16;100661.59;;;27.27;31.83
50464;BME280;62167;38.552;-121.478;2022-07-18T04:59:44;100672.38;;;27.19;32.04
50464;BME280;62167;38.552;-121.478;2022-07-18T05:02:11;100674.84;;;27.15;32.44
50464;BME280;62167;38.552;-121.478;2022-07-18T05:04:38;100676.78;;;27.14;33.07
50464;BME280;62167;38.552;-121.478;2022-07-18T05:07:05;100680.63;;;27.03;32.56
50464;BME280;62167;38.552;-121.478;2022-07-18T05:09:33;100690.03;;;27.02;33.61
50464;BME280;62167;38.552;-121.478;2022-07-18T05:12:02;100685.34;;;26.93;33.79
50464;BME280;62167;38.552;-121.478;2022-07-18T05:14:28;100690.28;;;26.90;33.86
50464;BME280;62167;38.552;-121.478;2022-07-18T05:16:57;100689.75;;;26.83;33.91
50464;BME280;62167;38.552;-121.478;2022-07-18T05:19:24;100683.91;;;26.70;33.53
50464;BME280;62167;38.552;-121.478;2022-07-18T05:21:50;100690.00;;;26.61;33.93
50464;BME280;62167;38.552;-121.478;2022-07-18T05:24:17;100690.25;;;26.60;34.33
50464;BME280;62167;38.552;-121.478;2022-07-18T05:26:43;100701.53;;;26.43;34.57
50464;BME280;62167;38.552;-121.478;2022-07-18T05:29:10;100697.63;;;26.39;34.64
50464;BME280;62167;38.552;-121.478;2022-07-18T05:31:40;100699.22;;;26.25;34.62
50464;BME280;62167;38.552;-121.478;2022-07-18T05:34:07;100710.00;;;26.21;34.57
50464;BME280;62167;38.552;-121.478;2022-07-18T05:36:34;100706.97;;;26.23;35.27
50464;BME280;62167;38.552;-121.478;2022-07-18T05:39:03;100716.03;;;26.13;35.13
50464;BME280;62167;38.552;-121.478;2022-07-18T05:41:30;100714.88;;;26.04;35.30
50464;BME280;62167;38.552;-121.478;2022-07-18T05:43:56;100720.97;;;26.06;35.47
50464;BME280;62167;38.552;-121.478;2022-07-18T05:46:22;100716.25;;;26.01;35.01
50464;BME280;62167;38.552;-121.478;2022-07-18T05:48:49;100727.56;;;26.00;35.70
50464;BME280;62167;38.552;-121.478;2022-07-18T05:51:15;100726.44;;;25.96;35.44
50464;BME280;62167;38.552;-121.478;2022-07-18T05:53:41;100732.78;;;25.91;35.74
50464;BME280;62167;38.552;-121.478;2022-07-18T05:56:08;100730.81;;;25.86;35.30
50464;BME280;62167;38.552;-121.478;2022-07-18T05:58:34;100741.81;;;25.81;35.36
50464;BME280;62167;38.552;-121.478;2022-07-18T06:01:01;100734.34;;;25.77;35.74
50464;BME280;62167;38.552;-121.478;2022-07-18T06:03:27;100742.56;;;25.72;36.46
50464;BME280;62167;38.552;-121.478;2022-07-18T06:05:54;100733.97;;;25.68;36.19
50464;BME280;62167;38.552;-121.478;2022-07-18T06:08:20;100737.22;;;25.60;36.27
50464;BME280;62167;38.552;-121.478;2022-07-18T06:10:46;100729.13;;;25.48;36.00
50464;BME280;62167;38.552;-121.478;2022-07-18T06:13:12;100739.03;;;25.44;36.62
50464;BME280;62167;38.552;-121.478;2022-07-18T06:15:39;100743.13;;;25.36;36.16
50464;BME280;62167;38.552;-121.478;2022-07-18T06:18:05;100742.28;;;25.36;35.93
50464;BME280;62167;38.552;-121.478;2022-07-18T06:20:31;100737.81;;;25.30;35.55
50464;BME280;62167;38.552;-121.478;2022-07-18T06:22:58;100733.66;;;25.27;35.52
50464;BME280;62167;38.552;-121.478;2022-07-18T06:25:24;100735.59;;;25.27;35.83
50464;BME280;62167;38.552;-121.478;2022-07-18T06:27:50;100736.41;;;25.27;35.74
50464;BME280;62167;38.552;-121.478;2022-07-18T06:30:16;100732.50;;;25.23;36.17
50464;BME280;62167;38.552;-121.478;2022-07-18T06:32:43;100725.59;;;25.21;35.55
50464;BME280;62167;38.552;-121.478;2022-07-18T06:35:09;100726.06;;;25.13;35.42
50464;BME280;62167;38.552;-121.478;2022-07-18T06:37:36;100738.47;;;25.10;35.23
50464;BME280;62167;38.552;-121.478;2022-07-18T06:40:02;100735.72;;;25.10;35.09
50464;BME280;62167;38.552;-121.478;2022-07-18T06:42:29;100738.16;;;25.06;35.52
50464;BME280;62167;38.552;-121.478;2022-07-18T06:44:55;100733.41;;;25.02;35.53
50464;BME280;62167;38.552;-121.478;2022-07-18T06:47:21;100732.25;;;24.98;35.46
50464;BME280;62167;38.552;-121.478;2022-07-18T06:49:48;100736.31;;;24.90;35.43
50464;BME280;62167;38.552;-121.478;2022-07-18T06:52:14;100745.69;;;24.89;35.25
50464;BME280;62167;38.552;-121.478;2022-07-18T06:54:41;100753.63;;;24.85;35.63
50464;BME280;62167;38.552;-121.478;2022-07-18T06:57:07;100754.97;;;24.83;35.39
50464;BME280;62167;38.552;-121.478;2022-07-18T06:59:35;100753.84;;;24.79;35.83
50464;BME280;62167;38.552;-121.478;2022-07-18T07:02:02;100754.63;;;24.74;35.55
50464;BME280;62167;38.552;-121.478;2022-07-18T07:04:28;100752.66;;;24.70;35.43
50464;BME280;62167;38.552;-121.478;2022-07-18T07:06:54;100739.25;;;24.56;35.57
50464;BME280;62167;38.552;-121.478;2022-07-18T07:09:20;100742.78;;;24.52;36.08
50464;BME280;62167;38.552;-121.478;2022-07-18T07:11:47;100745.19;;;24.43;36.15
50464;BME280;62167;38.552;-121.478;2022-07-18T07:14:13;100736.84;;;24.38;36.09
50464;BME280;62167;38.552;-121.478;2022-07-18T07:16:39;100743.44;;;24.37;36.09
50464;BME280;62167;38.552;-121.478;2022-07-18T07:19:06;100745.25;;;24.31;36.35
50464;BME280;62167;38.552;-121.478;2022-07-18T07:21:32;100747.69;;;24.28;36.39
50464;BME280;62167;38.552;-121.478;2022-07-18T07:23:58;100746.22;;;24.20;36.70
50464;BME280;62167;38.552;-121.478;2022-07-18T07:26:24;100739.81;;;24.15;37.30
50464;BME280;62167;38.552;-121.478;2022-07-18T07:28:51;100746.09;;;24.10;37.58
50464;BME280;62167;38.552;-121.478;2022-07-18T07:31:17;100742.69;;;24.03;38.15
50464;BME280;62167;38.552;-121.478;2022-07-18T07:33:43;100735.78;;;24.00;37.93
50464;BME280;62167;38.552;-121.478;2022-07-18T07:36:10;100735.13;;;23.93;38.47
50464;BME280;62167;38.552;-121.478;2022-07-18T07:38:36;100733.63;;;23.86;38.02
50464;BME280;62167;38.552;-121.478;2022-07-18T07:41:03;100740.16;;;23.79;38.13
50464;BME280;62167;38.552;-121.478;2022-07-18T07:43:29;100740.91;;;23.75;38.07
50464;BME280;62167;38.552;-121.478;2022-07-18T07:45:55;100739.25;;;23.74;38.47
50464;BME280;62167;38.552;-121.478;2022-07-18T07:48:22;100734.75;;;23.68;38.85
50464;BME280;62167;38.552;-121.478;2022-07-18T07:50:49;100734.44;;;23.64;38.88
50464;BME280;62167;38.552;-121.478;2022-07-18T07:53:17;100736.22;;;23.59;38.91
50464;BME280;62167;38.552;-121.478;2022-07-18T07:55:43;100738.06;;;23.53;39.07
50464;BME280;62167;38.552;-121.478;2022-07-18T07:58:10;100739.91;;;23.47;39.15
50464;BME280;62167;38.552;-121.478;2022-07-18T08:00:37;100745.00;;;23.39;39.18
50464;BME280;62167;38.552;-121.478;2022-07-18T08:03:05;100732.56;;;23.36;39.47
50464;BME280;62167;38.552;-121.478;2022-07-18T08:05:35;100739.06;;;23.30;40.07
50464;BME280;62167;38.552;-121.478;2022-07-18T08:08:03;100733.75;;;23.23;40.10
50464;BME280;62167;38.552;-121.478;2022-07-18T08:10:31;100738.97;;;23.25;40.29
50464;BME280;62167;38.552;-121.478;2022-07-18T08:12:58;100743.00;;;23.17;40.03
50464;BME280;62167;38.552;-121.478;2022-07-18T08:15:25;100744.91;;;23.17;40.02
50464;BME280;62167;38.552;-121.478;2022-07-18T08:17:51;100747.56;;;23.12;40.38
50464;BME280;62167;38.552;-121.478;2022-07-18T08:20:17;100753.91;;;23.12;40.22
50464;BME280;62167;38.552;-121.478;2022-07-18T08:22:55;100750.38;;;23.00;40.18
50464;BME280;62167;38.552;-121.478;2022-07-18T08:25:23;100750.38;;;23.00;40.77
50464;BME280;62167;38.552;-121.478;2022-07-18T08:27:50;100742.63;;;22.97;40.31
50464;BME280;62167;38.552;-121.478;2022-07-18T08:30:16;100757.44;;;22.96;40.38
50464;BME280;62167;38.552;-121.478;2022-07-18T08:32:43;100757.94;;;22.93;40.73
50464;BME280;62167;38.552;-121.478;2022-07-18T08:35:10;100759.13;;;22.85;40.60
50464;BME280;62167;38.552;-121.478;2022-07-18T08:37:36;100765.44;;;22.86;41.00
50464;BME280;62167;38.552;-121.478;2022-07-18T08:40:03;100761.41;;;22.88;41.10
50464;BME280;62167;38.552;-121.478;2022-07-18T08:42:32;100759.13;;;22.85;41.32
50464;BME280;62167;38.552;-121.478;2022-07-18T08:45:00;100760.47;;;22.83;41.09
50464;BME280;62167;38.552;-121.478;2022-07-18T08:47:28;100762.38;;;22.82;40.68
50464;BME280;62167;38.552;-121.478;2022-07-18T08:49:55;100762.03;;;22.78;40.58
50464;BME280;62167;38.552;-121.478;2022-07-18T08:52:21;100764.50;;;22.80;40.66
50464;BME280;62167;38.552;-121.478;2022-07-18T08:54:48;100766.69;;;22.78;40.51
50464;BME280;62167;38.552;-121.478;2022-07-18T08:57:15;100766.59;;;22.73;40.53
50464;BME280;62167;38.552;-121.478;2022-07-18T08:59:42;100765.03;;;22.77;40.36
50464;BME280;62167;38.552;-121.478;2022-07-18T09:02:09;100766.13;;;22.76;40.44
50464;BME280;62167;38.552;-121.478;2022-07-18T09:04:40;100773.50;;;22.75;40.45
50464;BME280;62167;38.552;-121.478;2022-07-18T09:07:08;100768.25;;;22.74;40.72
50464;BME280;62167;38.552;-121.478;2022-07-18T09:09:36;100772.91;;;22.73;40.88
50464;BME280;62167;38.552;-121.478;2022-07-18T09:12:05;100782.50;;;22.71;40.59
50464;BME280;62167;38.552;-121.478;2022-07-18T09:14:43;100791.31;;;22.73;40.56
50464;BME280;62167;38.552;-121.478;2022-07-18T09:17:26;100792.63;;;22.70;41.27
50464;BME280;62167;38.552;-121.478;2022-07-18T09:20:12;100792.88;;;22.69;40.65
50464;BME280;62167;38.552;-121.478;2022-07-18T09:22:44;100790.13;;;22.69;40.50
50464;BME280;62167;38.552;-121.478;2022-07-18T09:25:18;100783.53;;;22.70;41.06
50464;BME280;62167;38.552;-121.478;2022-07-18T09:27:51;100790.13;;;22.69;41.34
50464;BME280;62167;38.552;-121.478;2022-07-18T09:30:19;100788.72;;;22.66;41.02
50464;BME280;62167;38.552;-121.478;2022-07-18T09:35:22;100793.25;;;22.61;41.98
50464;BME280;62167;38.552;-121.478;2022-07-18T09:40:30;100801.16;;;22.57;41.85
50464;BME280;62167;38.552;-121.478;2022-07-18T09:43:00;100802.25;;;22.56;41.88
50464;BME280;62167;38.552;-121.478;2022-07-18T09:45:37;100809.63;;;22.56;41.93
50464;BME280;62167;38.552;-121.478;2022-07-18T09:48:11;100816.19;;;22.54;41.93
50464;BME280;62167;38.552;-121.478;2022-07-18T09:50:39;100818.81;;;22.49;42.70
50464;BME280;62167;38.552;-121.478;2022-07-18T09:53:14;100812.75;;;22.47;42.71
50464;BME280;62167;38.552;-121.478;2022-07-18T09:55:46;100818.81;;;22.49;42.71
50464;BME280;62167;38.552;-121.478;2022-07-18T09:58:18;100817.88;;;22.44;42.90
50464;BME280;62167;38.552;-121.478;2022-07-18T10:00:46;100818.88;;;22.38;42.75
50464;BME280;62167;38.552;-121.478;2022-07-18T10:03:12;100820.78;;;22.37;42.70
50464;BME280;62167;38.552;-121.478;2022-07-18T10:05:39;100815.75;;;22.34;42.77
50464;BME280;62167;38.552;-121.478;2022-07-18T10:08:10;100818.50;;;22.34;43.67
50464;BME280;62167;38.552;-121.478;2022-07-18T10:10:38;100823.28;;;22.27;43.66
50464;BME280;62167;38.552;-121.478;2022-07-18T10:13:05;100818.28;;;22.24;43.76
50464;BME280;62167;38.552;-121.478;2022-07-18T10:15:38;100821.28;;;22.22;43.74
50464;BME280;62167;38.552;-121.478;2022-07-18T10:18:12;100819.50;;;22.16;44.41
50464;BME280;62167;38.552;-121.478;2022-07-18T10:20:42;100819.72;;;22.15;43.95
50464;BME280;62167;38.552;-121.478;2022-07-18T10:25:40;100815.97;;;22.09;44.70
50464;BME280;62167;38.552;-121.478;2022-07-18T10:28:12;100824.34;;;22.02;44.20
50464;BME280;62167;38.552;-121.478;2022-07-18T10:30:44;100825.06;;;21.98;44.55
50464;BME280;62167;38.552;-121.478;2022-07-18T10:36:02;100830.31;;;21.88;44.96
50464;BME280;62167;38.552;-121.478;2022-07-18T10:38:29;100828.63;;;21.87;45.53
50464;BME280;62167;38.552;-121.478;2022-07-18T10:41:14;100835.41;;;21.84;45.11
50464;BME280;62167;38.552;-121.478;2022-07-18T10:43:42;100841.16;;;21.83;45.14
50464;BME280;62167;38.552;-121.478;2022-07-18T10:46:10;100838.16;;;21.84;44.85
50464;BME280;62167;38.552;-121.478;2022-07-18T10:51:08;100829.94;;;21.84;45.12
50464;BME280;62167;38.552;-121.478;2022-07-18T10:59:20;100834.84;;;21.82;44.84
50464;BME280;62167;38.552;-121.478;2022-07-18T11:01:50;100833.75;;;21.83;44.65
50464;BME280;62167;38.552;-121.478;2022-07-18T11:04:33;100836.16;;;21.80;44.63
50464;BME280;62167;38.552;-121.478;2022-07-18T11:07:11;100834.72;;;21.77;44.89
50464;BME280;62167;38.552;-121.478;2022-07-18T11:09:44;100845.69;;;21.77;45.22
50464;BME280;62167;38.552;-121.478;2022-07-18T11:12:21;100839.81;;;21.73;45.31
50464;BME280;62167;38.552;-121.478;2022-07-18T11:15:26;100837.44;;;21.65;45.54
50464;BME280;62167;38.552;-121.478;2022-07-18T11:18:12;100842.09;;;21.65;45.33
50464;BME280;62167;38.552;-121.478;2022-07-18T11:20:42;100838.50;;;21.64;45.74
50464;BME280;62167;38.552;-121.478;2022-07-18T11:25:52;100839.44;;;21.46;46.34
50464;BME280;62167;38.552;-121.478;2022-07-18T11:28:21;100840.81;;;21.37;46.55
50464;BME280;62167;38.552;-121.478;2022-07-18T11:31:11;100843.56;;;21.37;46.31
50464;BME280;62167;38.552;-121.478;2022-07-18T11:33:40;100840.09;;;21.30;46.51
50464;BME280;62167;38.552;-121.478;2022-07-18T11:36:16;100840.38;;;21.22;47.34
50464;BME280;62167;38.552;-121.478;2022-07-18T11:38:53;100844.34;;;21.26;46.92
50464;BME280;62167;38.552;-121.478;2022-07-18T11:41:21;100842.75;;;21.18;47.17
50464;BME280;62167;38.552;-121.478;2022-07-18T11:43:50;100842.84;;;21.12;47.61
50464;BME280;62167;38.552;-121.478;2022-07-18T11:46:18;100839.97;;;21.07;47.59
50464;BME280;62167;38.552;-121.478;2022-07-18T11:48:47;100841.63;;;21.08;48.16
50464;BME280;62167;38.552;-121.478;2022-07-18T11:51:19;100848.56;;;21.10;48.14
50464;BME280;62167;38.552;-121.478;2022-07-18T11:53:51;100846.38;;;21.01;48.24
50464;BME280;62167;38.552;-121.478;2022-07-18T11:56:19;100839.69;;;20.96;48.20
50464;BME280;62167;38.552;-121.478;2022-07-18T11:58:46;100848.53;;;20.98;47.89
50464;BME280;62167;38.552;-121.478;2022-07-18T12:01:14;100837.06;;;20.90;48.69
50464;BME280;62167;38.552;-121.478;2022-07-18T12:03:50;100840.88;;;20.89;48.36
50464;BME280;62167;38.552;-121.478;2022-07-18T12:06:24;100854.75;;;20.87;48.46
50464;BME280;62167;38.552;-121.478;2022-07-18T12:08:57;100850.81;;;20.83;49.10
50464;BME280;62167;38.552;-121.478;2022-07-18T12:11:31;100847.94;;;20.78;48.83
50464;BME280;62167;38.552;-121.478;2022-07-18T12:14:00;100854.94;;;20.74;48.86
50464;BME280;62167;38.552;-121.478;2022-07-18T12:19:11;100844.97;;;20.61;48.68
50464;BME280;62167;38.552;-121.478;2022-07-18T12:21:43;100856.16;;;20.60;49.08
50464;BME280;62167;38.552;-121.478;2022-07-18T12:24:33;100856.16;;;20.60;49.13
50464;BME280;62167;38.552;-121.478;2022-07-18T12:32:54;100865.31;;;20.54;49.34
50464;BME280;62167;38.552;-121.478;2022-07-18T12:35:31;100871.81;;;20.53;49.61
50464;BME280;62167;38.552;-121.478;2022-07-18T12:40:44;100882.41;;;20.49;49.66
50464;BME280;62167;38.552;-121.478;2022-07-18T12:43:14;100895.84;;;20.51;49.79
50464;BME280;62167;38.552;-121.478;2022-07-18T12:45:44;100889.16;;;20.46;49.69
50464;BME280;62167;38.552;-121.478;2022-07-18T12:48:11;100887.06;;;20.42;49.77
50464;BME280;62167;38.552;-121.478;2022-07-18T12:50:39;100885.41;;;20.41;50.14
50464;BME280;62167;38.552;-121.478;2022-07-18T12:53:06;100895.34;;;20.35;50.13
50464;BME280;62167;38.552;-121.478;2022-07-18T12:55:32;100900.22;;;20.33;50.59
50464;BME280;62167;38.552;-121.478;2022-07-18T12:58:02;100904.63;;;20.34;50.64